createdAt,value
2022-11-20T00:02:10.439Z,100087.02
2022-11-20T00:05:15.963Z,100087.62
2022-11-20T00:08:21.485Z,100086.59
2022-11-20T00:11:28.059Z,100085.57
2022-11-20T00:14:33.729Z,100089.69
2022-11-20T00:17:39.087Z,100089.80
2022-11-20T00:20:44.539Z,100090.67
2022-11-20T00:23:50.335Z,100094.09
2022-11-20T00:26:55.668Z,100100.51
2022-11-20T00:30:01.127Z,100097.20
2022-11-20T00:33:06.515Z,100096.48
2022-11-20T00:36:12.854Z,100100.37
2022-11-20T00:39:18.546Z,100101.66
2022-11-20T00:42:24.017Z,100096.78
2022-11-20T00:45:29.394Z,100093.98
2022-11-20T00:48:34.894Z,100099.12
2022-11-20T00:51:40.310Z,100098.63
2022-11-20T00:54:45.705Z,100102.20
2022-11-20T00:57:50.964Z,100102.92
2022-11-20T01:01:01.556Z,100100.50
2022-11-20T01:04:07.244Z,100101.86
2022-11-20T01:07:12.753Z,100100.84
2022-11-20T01:10:18.459Z,100098.86
2022-11-20T01:13:42.300Z,100100.94
2022-11-20T01:16:49.297Z,100100.00
2022-11-20T01:19:54.700Z,100096.91
2022-11-20T01:22:59.968Z,100096.60
2022-11-20T01:26:06.792Z,100100.53
2022-11-20T01:29:14.631Z,100100.08
2022-11-20T01:32:20.160Z,100101.73
2022-11-20T01:35:25.456Z,100095.98
2022-11-20T01:38:30.583Z,100095.92
2022-11-20T01:41:54.207Z,100097.57
2022-11-20T01:45:00.292Z,100098.92
2022-11-20T01:48:05.864Z,100102.91
2022-11-20T01:51:15.067Z,100099.49
2022-11-20T01:54:21.642Z,100097.89
2022-11-20T01:57:30.009Z,100099.08
2022-11-20T02:00:35.383Z,100098.28
2022-11-20T02:03:40.837Z,100093.16
2022-11-20T02:06:48.266Z,100100.68
2022-11-20T02:09:58.601Z,100095.09
2022-11-20T02:13:22.484Z,100090.53
2022-11-20T02:16:28.731Z,100087.63
2022-11-20T02:19:34.384Z,100084.25
2022-11-20T02:22:43.711Z,100088.23
2022-11-20T02:25:49.871Z,100082.09
2022-11-20T02:28:56.369Z,100086.50
2022-11-20T02:32:02.895Z,100085.41
2022-11-20T02:35:12.931Z,100082.47
2022-11-20T02:38:18.415Z,100081.35
2022-11-20T02:41:24.159Z,100083.48
2022-11-20T02:44:29.454Z,100084.21
2022-11-20T02:47:35.092Z,100081.83
2022-11-20T02:50:41.852Z,100076.86
2022-11-20T02:53:49.141Z,100079.04
2022-11-20T02:56:54.481Z,100072.92
2022-11-20T02:59:59.949Z,100073.15
2022-11-20T03:03:05.492Z,100074.88
2022-11-20T03:06:10.634Z,100075.09
2022-11-20T03:09:16.202Z,100071.39
2022-11-20T03:12:21.659Z,100072.61
2022-11-20T03:15:27.327Z,100074.54
2022-11-20T03:18:32.681Z,100075.22
2022-11-20T03:21:38.160Z,100073.82
2022-11-20T03:24:43.405Z,100073.46
2022-11-20T03:27:48.806Z,100071.37
2022-11-20T03:30:54.222Z,100070.86
2022-11-20T03:33:59.887Z,100068.13
2022-11-20T03:37:05.106Z,100071.98
2022-11-20T03:40:11.559Z,100071.19
2022-11-20T03:43:16.858Z,100072.30
2022-11-20T03:46:22.462Z,100067.84
2022-11-20T03:49:27.889Z,100069.48
2022-11-20T03:52:33.378Z,100071.56
2022-11-20T03:55:38.863Z,100073.36
2022-11-20T03:58:44.515Z,100067.11
2022-11-20T04:01:49.962Z,100063.15
2022-11-20T04:04:55.367Z,100065.56
2022-11-20T04:08:03.990Z,100065.83
2022-11-20T04:11:15.916Z,100063.27
2022-11-20T04:14:21.213Z,100066.29
2022-11-20T04:17:26.642Z,100072.23
2022-11-20T04:20:31.987Z,100073.91
2022-11-20T04:23:37.460Z,100070.72
2022-11-20T04:26:42.843Z,100072.55
2022-11-20T04:29:48.350Z,100068.08
2022-11-20T04:32:53.781Z,100061.23
2022-11-20T04:36:01.979Z,100055.28
2022-11-20T04:39:08.133Z,100058.23
2022-11-20T04:42:32.000Z,100058.02
2022-11-20T04:45:37.338Z,100057.05
2022-11-20T04:48:42.622Z,100053.23
2022-11-20T04:51:47.808Z,100052.12
2022-11-20T04:54:54.545Z,100050.36
2022-11-20T04:57:59.921Z,100051.06
2022-11-20T05:01:06.807Z,100051.86
2022-11-20T05:04:14.761Z,100048.73
2022-11-20T05:07:20.233Z,100041.52
2022-11-20T05:10:25.717Z,100046.70
2022-11-20T05:13:31.161Z,100044.11
2022-11-20T05:16:37.535Z,100045.94
2022-11-20T05:19:42.967Z,100040.17
2022-11-20T05:22:48.175Z,100042.43
2022-11-20T05:25:58.894Z,100042.85
2022-11-20T05:29:04.632Z,100045.71
2022-11-20T05:32:10.814Z,100045.13
2022-11-20T05:35:16.183Z,100050.36
2022-11-20T05:38:21.479Z,100045.95
2022-11-20T05:41:26.862Z,100045.71
2022-11-20T05:44:32.438Z,100043.83
2022-11-20T05:47:37.950Z,100043.81
2022-11-20T05:50:43.253Z,100039.46
2022-11-20T05:53:49.023Z,100034.95
2022-11-20T05:56:54.535Z,100030.05
2022-11-20T06:00:00.104Z,100040.80
2022-11-20T06:03:05.527Z,100039.64
2022-11-20T06:06:10.985Z,100041.48
2022-11-20T06:09:17.916Z,100041.48
2022-11-20T06:12:23.229Z,100043.63
2022-11-20T06:15:28.905Z,100041.23
2022-11-20T06:18:34.337Z,100043.15
2022-11-20T06:21:39.637Z,100042.33
2022-11-20T06:24:45.216Z,100049.55
2022-11-20T06:27:50.501Z,100049.19
2022-11-20T06:30:55.840Z,100055.65
2022-11-20T06:34:01.329Z,100053.42
2022-11-20T06:37:06.758Z,100053.63
2022-11-20T06:40:13.165Z,100046.50
2022-11-20T06:43:18.618Z,100047.54
2022-11-20T06:46:24.139Z,100048.04
2022-11-20T06:49:29.617Z,100047.11
2022-11-20T06:52:38.253Z,100042.31
2022-11-20T06:55:46.659Z,100054.21
2022-11-20T06:58:51.982Z,100049.59
2022-11-20T07:01:57.542Z,100042.27
2022-11-20T07:05:02.865Z,100042.38
2022-11-20T07:08:08.518Z,100041.32
2022-11-20T07:11:14.397Z,100040.02
2022-11-20T07:14:19.798Z,100034.48
2022-11-20T07:17:25.208Z,100034.52
2022-11-20T07:20:30.618Z,100033.54
2022-11-20T07:23:36.356Z,100031.31
2022-11-20T07:26:41.666Z,100035.44
2022-11-20T07:29:47.123Z,100032.23
2022-11-20T07:32:54.300Z,100030.54
2022-11-20T07:36:01.381Z,100025.01
2022-11-20T07:39:06.789Z,100025.98
2022-11-20T07:42:13.094Z,100027.24
2022-11-20T07:45:18.541Z,100026.02
2022-11-20T07:48:23.963Z,100022.64
2022-11-20T07:51:30.499Z,100018.36
2022-11-20T07:54:35.877Z,100012.86
2022-11-20T07:57:41.436Z,100016.45
2022-11-20T08:00:46.828Z,100011.11
2022-11-20T08:03:52.219Z,100008.70
2022-11-20T08:06:57.706Z,100007.27
2022-11-20T08:10:03.336Z,100007.40
2022-11-20T08:13:26.369Z,100000.41
2022-11-20T08:16:31.765Z,99996.82
2022-11-20T08:19:37.095Z,99994.10
2022-11-20T08:22:42.312Z,99996.33
2022-11-20T08:25:51.182Z,100000.56
2022-11-20T08:28:57.181Z,99997.33
2022-11-20T08:32:02.485Z,99992.98
2022-11-20T08:35:16.613Z,99989.13
2022-11-20T08:38:21.851Z,99988.52
2022-11-20T08:41:27.902Z,99980.98
2022-11-20T08:44:33.438Z,99979.54
2022-11-20T08:47:38.778Z,99979.17
2022-11-20T08:50:43.986Z,99975.05
2022-11-20T08:53:50.606Z,99974.30
2022-11-20T08:56:55.808Z,99973.02
2022-11-20T09:00:08.703Z,99971.68
2022-11-20T09:03:14.469Z,99976.40
2022-11-20T09:06:20.328Z,99978.87
2022-11-20T09:09:26.180Z,99978.97
2022-11-20T09:12:31.505Z,99979.17
2022-11-20T09:15:36.970Z,99977.02
2022-11-20T09:18:42.397Z,99977.89
2022-11-20T09:21:47.738Z,99975.57
2022-11-20T09:24:53.056Z,99974.20
2022-11-20T09:27:58.831Z,99970.69
2022-11-20T09:31:06.998Z,99970.65
2022-11-20T09:34:12.257Z,99972.65
2022-11-20T09:37:17.566Z,99968.25
2022-11-20T09:40:24.154Z,99963.15
2022-11-20T09:43:35.764Z,99958.20
2022-11-20T09:46:45.224Z,99955.42
2022-11-20T09:50:00.218Z,99954.11
2022-11-20T09:53:14.158Z,99952.29
2022-11-20T09:56:22.856Z,99952.59
2022-11-20T09:59:33.557Z,99952.36
2022-11-20T10:02:41.700Z,99953.77
2022-11-20T10:05:48.611Z,99949.89
2022-11-20T10:08:58.547Z,99947.92
2022-11-20T10:12:09.135Z,99946.23
2022-11-20T10:15:24.568Z,99943.37
2022-11-20T10:18:39.737Z,99941.71
2022-11-20T10:21:54.313Z,99941.74
2022-11-20T10:25:05.253Z,99938.98
2022-11-20T10:28:17.741Z,99937.92
2022-11-20T10:31:30.475Z,99936.33
2022-11-20T10:34:37.515Z,99928.77
2022-11-20T10:37:44.845Z,99923.67
2022-11-20T10:40:51.236Z,99924.05
2022-11-20T10:44:02.192Z,99926.59
2022-11-20T10:47:12.432Z,99928.86
2022-11-20T10:50:22.621Z,99924.05
2022-11-20T10:53:37.692Z,99925.14
2022-11-20T10:56:50.136Z,99920.65
2022-11-20T11:00:02.623Z,99915.96
2022-11-20T11:03:13.452Z,99916.40
2022-11-20T11:06:22.981Z,99920.09
2022-11-20T11:09:32.167Z,99925.13
2022-11-20T11:12:37.385Z,99930.27
2022-11-20T11:15:43.101Z,99926.94
2022-11-20T11:18:48.512Z,99927.02
2022-11-20T11:21:55.933Z,99919.79
2022-11-20T11:25:01.871Z,99926.87
2022-11-20T11:28:21.028Z,99928.86
2022-11-20T11:31:27.580Z,99925.55
2022-11-20T11:34:33.568Z,99920.20
2022-11-20T11:37:40.292Z,99920.14
2022-11-20T11:40:46.123Z,99909.93
2022-11-20T11:44:12.242Z,99906.88
2022-11-20T11:47:22.998Z,99904.59
2022-11-20T11:50:29.399Z,99904.30
2022-11-20T11:53:37.073Z,99897.11
2022-11-20T11:56:42.649Z,99896.91
2022-11-20T11:59:54.589Z,99896.38
2022-11-20T12:03:05.689Z,99899.52
2022-11-20T12:06:15.005Z,99895.53
2022-11-20T12:09:21.578Z,99891.73
2022-11-20T12:12:31.226Z,99897.02
2022-11-20T12:15:36.887Z,99894.88
2022-11-20T12:18:42.964Z,99888.45
2022-11-20T12:22:00.039Z,99884.40
2022-11-20T12:25:09.302Z,99885.17
2022-11-20T12:28:31.236Z,99888.16
2022-11-20T12:31:45.473Z,99877.91
2022-11-20T12:34:53.839Z,99876.38
2022-11-20T12:38:05.572Z,99870.27
2022-11-20T12:41:35.737Z,99872.08
2022-11-20T12:45:12.948Z,99865.37
2022-11-20T12:48:33.900Z,99860.76
2022-11-20T12:52:01.801Z,99862.33
2022-11-20T12:55:23.550Z,99858.23
2022-11-20T12:58:34.632Z,99854.02
2022-11-20T13:01:43.848Z,99850.30
2022-11-20T13:04:59.508Z,99855.05
2022-11-20T13:08:06.833Z,99856.64
2022-11-20T13:11:16.738Z,99855.46
2022-11-20T13:14:34.614Z,99849.46
2022-11-20T13:17:42.731Z,99843.67
2022-11-20T13:20:49.190Z,99843.86
2022-11-20T13:23:54.401Z,99836.80
2022-11-20T13:27:06.878Z,99835.20
2022-11-20T13:30:18.412Z,99836.70
2022-11-20T13:33:28.979Z,99835.45
2022-11-20T13:36:36.006Z,99833.89
2022-11-20T13:39:41.311Z,99831.45
2022-11-20T13:42:47.859Z,99830.41
2022-11-20T13:46:01.072Z,99830.66
2022-11-20T13:49:11.049Z,99831.83
2022-11-20T13:52:31.262Z,99834.81
2022-11-20T13:55:40.223Z,99834.30
2022-11-20T13:58:53.356Z,99833.73
2022-11-20T14:01:58.827Z,99835.34
2022-11-20T14:05:05.780Z,99834.11
2022-11-20T14:08:15.192Z,99829.16
2022-11-20T14:11:21.750Z,99830.39
2022-11-20T14:14:27.883Z,99832.75
2022-11-20T14:17:34.327Z,99831.30
2022-11-20T14:20:40.088Z,99827.09
2022-11-20T14:23:45.562Z,99826.58
2022-11-20T14:26:51.669Z,99826.34
2022-11-20T14:29:57.199Z,99822.16
2022-11-20T14:33:05.312Z,99818.52
2022-11-20T14:36:19.042Z,99816.64
2022-11-20T14:39:27.703Z,99816.00
2022-11-20T14:42:34.999Z,99817.79
2022-11-20T14:45:40.618Z,99819.16
2022-11-20T14:48:48.748Z,99813.55
2022-11-20T14:52:01.795Z,99806.51
2022-11-20T14:55:10.275Z,99803.89
2022-11-20T14:58:24.617Z,99802.11
2022-11-20T15:01:31.188Z,99799.08
2022-11-20T15:04:46.161Z,99795.55
2022-11-20T15:07:52.905Z,99791.82
2022-11-20T15:10:58.332Z,99787.00
2022-11-20T15:14:05.692Z,99790.34
2022-11-20T15:17:13.329Z,99786.45
2022-11-20T15:20:19.473Z,99786.30
2022-11-20T15:23:25.374Z,99787.63
2022-11-20T15:26:30.795Z,99791.88
2022-11-20T15:29:37.878Z,99795.45
2022-11-20T15:32:43.248Z,99796.98
2022-11-20T15:35:48.617Z,99796.40
2022-11-20T15:38:54.038Z,99791.83
2022-11-20T15:41:59.422Z,99787.87
2022-11-20T15:45:04.931Z,99787.36
2022-11-20T15:48:13.775Z,99789.17
2022-11-20T15:51:23.622Z,99789.41
2022-11-20T15:54:28.984Z,99788.00
2022-11-20T15:57:34.402Z,99788.98
2022-11-20T16:00:41.863Z,99789.39
2022-11-20T16:03:47.630Z,99788.63
2022-11-20T16:06:52.944Z,99786.93
2022-11-20T16:09:58.367Z,99786.34
2022-11-20T16:13:21.666Z,99782.41
2022-11-20T16:16:31.203Z,99781.48
2022-11-20T16:19:36.704Z,99778.22
2022-11-20T16:22:42.134Z,99776.23
2022-11-20T16:25:47.388Z,99771.13
2022-11-20T16:28:52.830Z,99771.10
2022-11-20T16:31:58.514Z,99768.19
2022-11-20T16:35:08.514Z,99768.34
2022-11-20T16:38:13.951Z,99763.35
2022-11-20T16:41:19.399Z,99762.80
2022-11-20T16:44:25.019Z,99759.22
2022-11-20T16:47:30.713Z,99757.09
2022-11-20T16:50:36.101Z,99756.36
2022-11-20T16:53:42.934Z,99752.83
2022-11-20T16:56:51.106Z,99755.14
2022-11-20T17:00:01.776Z,99753.76
2022-11-20T17:03:10.428Z,99756.70
2022-11-20T17:06:17.285Z,99751.61
2022-11-20T17:09:22.749Z,99749.86
2022-11-20T17:12:28.119Z,99748.90
2022-11-20T17:15:33.890Z,99746.67
2022-11-20T17:18:39.291Z,99747.85
2022-11-20T17:21:44.530Z,99743.67
2022-11-20T17:24:49.647Z,99742.86
2022-11-20T17:27:55.461Z,99735.95
2022-11-20T17:31:04.965Z,99732.46
2022-11-20T17:34:12.785Z,99728.05
2022-11-20T17:37:18.200Z,99725.73
2022-11-20T17:40:27.332Z,99727.63
2022-11-20T17:43:35.844Z,99731.15
2022-11-20T17:46:41.707Z,99728.80
2022-11-20T17:49:47.052Z,99729.84
2022-11-20T17:52:52.322Z,99735.96
2022-11-20T17:56:15.423Z,99738.25
2022-11-20T17:59:21.463Z,99738.98
2022-11-20T18:02:26.797Z,99731.67
2022-11-20T18:05:32.167Z,99731.38
2022-11-20T18:08:37.457Z,99725.98
2022-11-20T18:11:43.797Z,99726.19
2022-11-20T18:14:49.565Z,99727.46
2022-11-20T18:17:54.942Z,99723.76
2022-11-20T18:21:00.451Z,99719.98
2022-11-20T18:24:13.378Z,99722.06
2022-11-20T18:27:19.758Z,99719.92
2022-11-20T18:30:25.647Z,99715.61
2022-11-20T18:33:31.225Z,99712.77
2022-11-20T18:36:36.454Z,99711.40
2022-11-20T18:39:41.863Z,99714.56
2022-11-20T18:43:04.744Z,99717.23
2022-11-20T18:46:10.401Z,99716.58
2022-11-20T18:49:15.702Z,99717.56
2022-11-20T18:52:22.467Z,99721.70
2022-11-20T18:55:27.851Z,99719.46
2022-11-20T18:58:33.230Z,99724.14
2022-11-20T19:01:38.717Z,99728.14
2022-11-20T19:04:44.143Z,99728.50
2022-11-20T19:07:49.604Z,99731.48
2022-11-20T19:10:54.899Z,99726.21
2022-11-20T19:14:00.219Z,99724.84
2022-11-20T19:17:06.906Z,99719.98
2022-11-20T19:20:13.146Z,99720.44
2022-11-20T19:23:22.110Z,99719.36
2022-11-20T19:26:28.245Z,99713.50
2022-11-20T19:29:33.728Z,99710.56
2022-11-20T19:32:39.511Z,99709.89
2022-11-20T19:35:44.864Z,99712.80
2022-11-20T19:38:53.792Z,99714.29
2022-11-20T19:42:01.639Z,99716.08
2022-11-20T19:45:08.238Z,99712.64
2022-11-20T19:48:13.753Z,99712.75
2022-11-20T19:51:20.938Z,99710.92
2022-11-20T19:54:26.491Z,99712.73
2022-11-20T19:57:32.865Z,99710.56
2022-11-20T20:00:38.283Z,99705.38
2022-11-20T20:03:44.829Z,99709.25
2022-11-20T20:06:52.795Z,99707.69
2022-11-20T20:09:58.103Z,99710.14
2022-11-20T20:13:03.427Z,99704.30
2022-11-20T20:16:09.825Z,99704.94
2022-11-20T20:19:17.530Z,99706.79
2022-11-20T20:22:23.110Z,99706.15
2022-11-20T20:25:28.561Z,99704.94
2022-11-20T20:28:33.960Z,99704.47
2022-11-20T20:31:40.249Z,99707.45
2022-11-20T20:34:45.713Z,99708.05
2022-11-20T20:37:51.076Z,99709.03
2022-11-20T20:40:56.446Z,99709.10
2022-11-20T20:44:19.830Z,99704.61
2022-11-20T20:47:25.191Z,99705.42
2022-11-20T20:50:31.980Z,99706.45
2022-11-20T20:53:37.729Z,99707.39
2022-11-20T20:56:45.474Z,99708.42
2022-11-20T20:59:52.112Z,99717.52
2022-11-20T21:02:57.369Z,99718.41
2022-11-20T21:06:03.053Z,99721.33
2022-11-20T21:09:11.239Z,99722.50
2022-11-20T21:12:16.545Z,99725.55
2022-11-20T21:15:21.928Z,99731.16
2022-11-20T21:18:27.548Z,99728.80
2022-11-20T21:21:50.307Z,99721.48
2022-11-20T21:24:55.593Z,99723.90
2022-11-20T21:28:01.045Z,99718.30
2022-11-20T21:31:07.594Z,99720.77
2022-11-20T21:34:13.338Z,99723.08
2022-11-20T21:37:18.742Z,99725.06
2022-11-20T21:40:24.142Z,99722.61
2022-11-20T21:43:29.550Z,99721.02
2022-11-20T21:46:38.800Z,99720.17
2022-11-20T21:49:44.028Z,99722.59
2022-11-20T21:52:49.264Z,99718.46
2022-11-20T21:55:57.723Z,99719.47
2022-11-20T21:59:03.111Z,99711.16
2022-11-20T22:02:11.726Z,99713.43
2022-11-20T22:05:17.345Z,99716.45
2022-11-20T22:08:22.666Z,99714.69
2022-11-20T22:11:28.097Z,99712.36
2022-11-20T22:14:33.585Z,99705.35
2022-11-20T22:18:11.104Z,99700.40
2022-11-20T22:21:17.331Z,99695.16
2022-11-20T22:24:24.065Z,99690.80
2022-11-20T22:27:29.683Z,99689.15
2022-11-20T22:30:35.266Z,99688.48
2022-11-20T22:33:40.992Z,99691.25
2022-11-20T22:36:46.371Z,99691.51
2022-11-20T22:39:51.732Z,99691.50
2022-11-20T22:42:57.009Z,99692.67
2022-11-20T22:46:04.636Z,99694.18
2022-11-20T22:49:09.996Z,99699.69
2022-11-20T22:52:15.345Z,99707.23
2022-11-20T22:55:20.637Z,99708.73
2022-11-20T22:58:25.850Z,99701.44
2022-11-20T23:01:31.969Z,99698.04
2022-11-20T23:04:37.434Z,99689.38
2022-11-20T23:07:43.896Z,99684.45
2022-11-20T23:10:49.229Z,99676.27
2022-11-20T23:13:56.557Z,99670.88
2022-11-20T23:17:35.760Z,99667.64
2022-11-20T23:20:41.037Z,99667.88
2022-11-20T23:23:48.998Z,99666.95
2022-11-20T23:26:54.370Z,99666.20
